sensor_id;sensor_type;location;lat;lon;timestamp;temperature;humidity
8820;DHT22;4446;50.876;4.736;2023-04-21T00:00:03;6.50;99.90
8820;DHT22;4446;50.876;4.736;2023-04-21T00:02:33;6.50;99.90
8820;DHT22;4446;50.876;4.736;2023-04-21T00:05:05;6.50;99.90
8820;DHT22;4446;50.876;4.736;2023-04-21T00:07:34;6.50;99.90
8820;DHT22;4446;50.876;4.736;2023-04-21T00:10:03;6.50;99.90
8820;DHT22;4446;50.876;4.736;2023-04-21T00:12:31;6.60;99.90
8820;DHT22;4446;50.876;4.736;2023-04-21T00:14:58;6.60;99.90
8820;DHT22;4446;50.876;4.736;2023-04-21T00:17:26;6.70;99.90
8820;DHT22;4446;50.876;4.736;2023-04-21T00:19:53;6.70;99.90
8820;DHT22;4446;50.876;4.736;2023-04-21T00:22:20;6.80;99.90
8820;DHT22;4446;50.876;4.736;2023-04-21T00:24:47;6.90;99.90
8820;DHT22;4446;50.876;4.736;2023-04-21T00:27:14;6.90;99.90
8820;DHT22;4446;50.876;4.736;2023-04-21T00:29:42;6.90;99.90
8820;DHT22;4446;50.876;4.736;2023-04-21T00:32:09;6.80;99.90
8820;DHT22;4446;50.876;4.736;2023-04-21T00:34:36;6.80;99.90
8820;DHT22;4446;50.876;4.736;2023-04-21T00:37:03;6.80;99.90
8820;DHT22;4446;50.876;4.736;2023-04-21T00:39:30;6.80;99.90
8820;DHT22;4446;50.876;4.736;2023-04-21T00:41:57;6.90;99.90
8820;DHT22;4446;50.876;4.736;2023-04-21T00:44:24;6.80;99.90
8820;DHT22;4446;50.876;4.736;2023-04-21T00:46:52;6.80;99.90
8820;DHT22;4446;50.876;4.736;2023-04-21T00:49:19;6.80;99.90
8820;DHT22;4446;50.876;4.736;2023-04-21T00:51:46;6.80;99.90
8820;DHT22;4446;50.876;4.736;2023-04-21T00:54:13;6.80;99.90
8820;DHT22;4446;50.876;4.736;2023-04-21T00:56:40;6.90;99.90
8820;DHT22;4446;50.876;4.736;2023-04-21T00:59:07;6.80;99.90
8820;DHT22;4446;50.876;4.736;2023-04-21T01:01:35;6.80;99.90
8820;DHT22;4446;50.876;4.736;2023-04-21T01:04:04;6.80;99.90
8820;DHT22;4446;50.876;4.736;2023-04-21T01:06:32;6.80;99.90
8820;DHT22;4446;50.876;4.736;2023-04-21T01:09:00;6.80;99.90
8820;DHT22;4446;50.876;4.736;2023-04-21T01:11:28;6.80;99.90
8820;DHT22;4446;50.876;4.736;2023-04-21T01:13:56;6.80;99.90
8820;DHT22;4446;50.876;4.736;2023-04-21T01:16:23;6.70;99.90
8820;DHT22;4446;50.876;4.736;2023-04-21T01:18:51;6.70;99.90
8820;DHT22;4446;50.876;4.736;2023-04-21T01:21:20;6.70;99.90
8820;DHT22;4446;50.876;4.736;2023-04-21T01:23:49;6.70;99.90
8820;DHT22;4446;50.876;4.736;2023-04-21T01:26:17;6.70;99.90
8820;DHT22;4446;50.876;4.736;2023-04-21T01:28:44;6.70;99.90
8820;DHT22;4446;50.876;4.736;2023-04-21T01:31:12;6.70;99.90
8820;DHT22;4446;50.876;4.736;2023-04-21T01:33:39;6.70;99.90
8820;DHT22;4446;50.876;4.736;2023-04-21T01:36:08;6.60;99.90
8820;DHT22;4446;50.876;4.736;2023-04-21T01:38:37;6.60;99.90
8820;DHT22;4446;50.876;4.736;2023-04-21T01:41:06;6.70;99.90
8820;DHT22;4446;50.876;4.736;2023-04-21T01:43:33;6.60;99.90
8820;DHT22;4446;50.876;4.736;2023-04-21T01:46:00;6.70;99.90
8820;DHT22;4446;50.876;4.736;2023-04-21T01:48:28;6.60;99.90
8820;DHT22;4446;50.876;4.736;2023-04-21T01:50:54;6.60;99.90
8820;DHT22;4446;50.876;4.736;2023-04-21T01:53:22;6.60;99.90
8820;DHT22;4446;50.876;4.736;2023-04-21T01:55:49;6.60;99.90
8820;DHT22;4446;50.876;4.736;2023-04-21T01:58:17;6.60;99.90
8820;DHT22;4446;50.876;4.736;2023-04-21T02:00:44;6.60;99.90
8820;DHT22;4446;50.876;4.736;2023-04-21T02:03:11;6.60;99.90
8820;DHT22;4446;50.876;4.736;2023-04-21T02:05:38;6.70;99.90
8820;DHT22;4446;50.876;4.736;2023-04-21T02:08:05;6.60;99.90
8820;DHT22;4446;50.876;4.736;2023-04-21T02:10:32;6.60;99.90
8820;DHT22;4446;50.876;4.736;2023-04-21T02:12:59;6.60;99.90
8820;DHT22;4446;50.876;4.736;2023-04-21T02:15:28;6.60;99.90
8820;DHT22;4446;50.876;4.736;2023-04-21T02:17:55;6.60;99.90
8820;DHT22;4446;50.876;4.736;2023-04-21T02:20:22;6.60;99.90
8820;DHT22;4446;50.876;4.736;2023-04-21T02:22:49;6.60;99.90
8820;DHT22;4446;50.876;4.736;2023-04-21T02:25:15;6.60;99.90
8820;DHT22;4446;50.876;4.736;2023-04-21T02:27:43;6.60;99.90
8820;DHT22;4446;50.876;4.736;2023-04-21T02:30:10;6.60;99.90
8820;DHT22;4446;50.876;4.736;2023-04-21T02:32:38;6.60;99.90
8820;DHT22;4446;50.876;4.736;2023-04-21T02:35:06;6.60;99.90
8820;DHT22;4446;50.876;4.736;2023-04-21T02:37:34;6.70;99.90
8820;DHT22;4446;50.876;4.736;2023-04-21T02:40:01;6.70;99.90
8820;DHT22;4446;50.876;4.736;2023-04-21T02:42:28;6.70;99.90
8820;DHT22;4446;50.876;4.736;2023-04-21T02:44:54;6.60;99.90
8820;DHT22;4446;50.876;4.736;2023-04-21T02:47:21;6.60;99.90
8820;DHT22;4446;50.876;4.736;2023-04-21T02:49:50;6.60;99.90
8820;DHT22;4446;50.876;4.736;2023-04-21T02:52:17;6.60;99.90
8820;DHT22;4446;50.876;4.736;2023-04-21T02:54:44;6.60;99.90
8820;DHT22;4446;50.876;4.736;2023-04-21T02:57:11;6.60;99.90
8820;DHT22;4446;50.876;4.736;2023-04-21T02:59:37;6.60;99.90
8820;DHT22;4446;50.876;4.736;2023-04-21T03:02:05;6.60;99.90
8820;DHT22;4446;50.876;4.736;2023-04-21T03:04:32;6.60;99.90
8820;DHT22;4446;50.876;4.736;2023-04-21T03:07:00;6.60;99.90
8820;DHT22;4446;50.876;4.736;2023-04-21T03:09:27;6.60;99.90
8820;DHT22;4446;50.876;4.736;2023-04-21T03:11:54;6.60;99.90
8820;DHT22;4446;50.876;4.736;2023-04-21T03:14:21;6.60;99.90
8820;DHT22;4446;50.876;4.736;2023-04-21T03:16:48;6.60;99.90
8820;DHT22;4446;50.876;4.736;2023-04-21T03:19:15;6.70;99.90
8820;DHT22;4446;50.876;4.736;2023-04-21T03:21:42;6.70;99.90
8820;DHT22;4446;50.876;4.736;2023-04-21T03:24:10;6.60;99.90
8820;DHT22;4446;50.876;4.736;2023-04-21T03:26:38;6.60;99.90
8820;DHT22;4446;50.876;4.736;2023-04-21T03:29:05;6.50;99.90
8820;DHT22;4446;50.876;4.736;2023-04-21T03:31:32;6.40;99.90
8820;DHT22;4446;50.876;4.736;2023-04-21T03:33:59;6.50;99.90
8820;DHT22;4446;50.876;4.736;2023-04-21T03:36:26;6.40;99.90
8820;DHT22;4446;50.876;4.736;2023-04-21T03:38:53;6.40;99.90
8820;DHT22;4446;50.876;4.736;2023-04-21T03:41:21;6.40;99.90
8820;DHT22;4446;50.876;4.736;2023-04-21T03:43:49;6.30;99.90
8820;DHT22;4446;50.876;4.736;2023-04-21T03:46:17;6.30;99.90
8820;DHT22;4446;50.876;4.736;2023-04-21T03:48:45;6.10;99.90
8820;DHT22;4446;50.876;4.736;2023-04-21T03:51:12;6.10;99.90
8820;DHT22;4446;50.876;4.736;2023-04-21T03:53:40;5.90;99.90
8820;DHT22;4446;50.876;4.736;2023-04-21T03:56:07;5.80;99.90
8820;DHT22;4446;50.876;4.736;2023-04-21T03:58:36;5.80;99.90
8820;DHT22;4446;50.876;4.736;2023-04-21T04:01:04;5.70;99.90
8820;DHT22;4446;50.876;4.736;2023-04-21T04:03:32;5.60;99.90
8820;DHT22;4446;50.876;4.736;2023-04-21T04:05:59;5.50;99.90
8820;DHT22;4446;50.876;4.736;2023-04-21T04:08:27;5.50;99.90
8820;DHT22;4446;50.876;4.736;2023-04-21T04:10:54;5.40;99.90
8820;DHT22;4446;50.876;4.736;2023-04-21T04:13:21;5.50;99.90
8820;DHT22;4446;50.876;4.736;2023-04-21T04:15:50;5.60;99.90
8820;DHT22;4446;50.876;4.736;2023-04-21T04:18:17;5.70;99.90
8820;DHT22;4446;50.876;4.736;2023-04-21T04:20:44;5.70;99.90
8820;DHT22;4446;50.876;4.736;2023-04-21T04:23:11;5.60;99.90
8820;DHT22;4446;50.876;4.736;2023-04-21T04:25:38;5.50;99.90
8820;DHT22;4446;50.876;4.736;2023-04-21T04:28:05;5.40;99.90
8820;DHT22;4446;50.876;4.736;2023-04-21T04:30:33;5.30;99.90
8820;DHT22;4446;50.876;4.736;2023-04-21T04:33:03;5.20;99.90
8820;DHT22;4446;50.876;4.736;2023-04-21T04:35:30;5.20;99.90
8820;DHT22;4446;50.876;4.736;2023-04-21T04:37:57;5.20;99.90
8820;DHT22;4446;50.876;4.736;2023-04-21T04:40:24;5.10;99.90
8820;DHT22;4446;50.876;4.736;2023-04-21T04:42:51;5.10;99.90
8820;DHT22;4446;50.876;4.736;2023-04-21T04:45:19;5.00;99.90
8820;DHT22;4446;50.876;4.736;2023-04-21T04:47:48;4.90;99.90
8820;DHT22;4446;50.876;4.736;2023-04-21T04:50:16;5.00;99.90
8820;DHT22;4446;50.876;4.736;2023-04-21T04:52:43;5.00;99.90
8820;DHT22;4446;50.876;4.736;2023-04-21T04:55:12;5.00;99.90
8820;DHT22;4446;50.876;4.736;2023-04-21T04:57:39;5.00;99.90
8820;DHT22;4446;50.876;4.736;2023-04-21T05:00:08;5.00;99.90
8820;DHT22;4446;50.876;4.736;2023-04-21T05:02:36;5.00;99.90
8820;DHT22;4446;50.876;4.736;2023-04-21T05:05:04;5.00;99.90
8820;DHT22;4446;50.876;4.736;2023-04-21T05:07:32;5.10;99.90
8820;DHT22;4446;50.876;4.736;2023-04-21T05:09:59;5.10;99.90
8820;DHT22;4446;50.876;4.736;2023-04-21T05:12:29;5.10;99.90
8820;DHT22;4446;50.876;4.736;2023-04-21T05:14:56;5.20;99.90
8820;DHT22;4446;50.876;4.736;2023-04-21T05:17:23;5.30;99.90
8820;DHT22;4446;50.876;4.736;2023-04-21T05:19:50;5.30;99.90
8820;DHT22;4446;50.876;4.736;2023-04-21T05:22:17;5.30;99.90
8820;DHT22;4446;50.876;4.736;2023-04-21T05:24:46;5.30;99.90
8820;DHT22;4446;50.876;4.736;2023-04-21T05:27:13;5.30;99.90
8820;DHT22;4446;50.876;4.736;2023-04-21T05:29:40;5.40;99.90
8820;DHT22;4446;50.876;4.736;2023-04-21T05:32:07;5.50;99.90
8820;DHT22;4446;50.876;4.736;2023-04-21T05:34:36;5.50;99.90
8820;DHT22;4446;50.876;4.736;2023-04-21T05:37:04;5.50;99.90
8820;DHT22;4446;50.876;4.736;2023-04-21T05:39:31;5.50;99.90
8820;DHT22;4446;50.876;4.736;2023-04-21T05:41:59;5.60;99.90
8820;DHT22;4446;50.876;4.736;2023-04-21T05:44:27;5.70;99.90
8820;DHT22;4446;50.876;4.736;2023-04-21T05:46:54;5.70;99.90
8820;DHT22;4446;50.876;4.736;2023-04-21T05:49:20;5.80;99.90
8820;DHT22;4446;50.876;4.736;2023-04-21T05:51:47;5.90;99.90
8820;DHT22;4446;50.876;4.736;2023-04-21T05:54:14;5.90;99.90
8820;DHT22;4446;50.876;4.736;2023-04-21T05:56:42;6.00;99.90
8820;DHT22;4446;50.876;4.736;2023-04-21T05:59:10;6.10;99.90
8820;DHT22;4446;50.876;4.736;2023-04-21T06:01:37;6.10;99.90
8820;DHT22;4446;50.876;4.736;2023-04-21T06:04:04;6.10;99.90
8820;DHT22;4446;50.876;4.736;2023-04-21T06:06:31;6.20;99.90
8820;DHT22;4446;50.876;4.736;2023-04-21T06:08:58;6.20;99.90
8820;DHT22;4446;50.876;4.736;2023-04-21T06:11:25;6.30;99.90
8820;DHT22;4446;50.876;4.736;2023-04-21T06:13:52;6.30;99.90
8820;DHT22;4446;50.876;4.736;2023-04-21T06:16:24;6.40;99.90
8820;DHT22;4446;50.876;4.736;2023-04-21T06:18:51;6.40;99.90
8820;DHT22;4446;50.876;4.736;2023-04-21T06:21:18;6.50;99.90
8820;DHT22;4446;50.876;4.736;2023-04-21T06:23:45;6.50;99.90
8820;DHT22;4446;50.876;4.736;2023-04-21T06:26:12;6.60;99.90
8820;DHT22;4446;50.876;4.736;2023-04-21T06:28:39;6.60;99.90
8820;DHT22;4446;50.876;4.736;2023-04-21T06:31:06;6.70;99.90
8820;DHT22;4446;50.876;4.736;2023-04-21T06:33:35;6.70;99.90
8820;DHT22;4446;50.876;4.736;2023-04-21T06:36:03;6.70;99.90
8820;DHT22;4446;50.876;4.736;2023-04-21T06:38:30;6.80;99.90
8820;DHT22;4446;50.876;4.736;2023-04-21T06:40:57;6.80;99.90
8820;DHT22;4446;50.876;4.736;2023-04-21T06:43:24;6.90;99.90
8820;DHT22;4446;50.876;4.736;2023-04-21T06:45:51;6.90;99.90
8820;DHT22;4446;50.876;4.736;2023-04-21T06:48:18;6.90;99.90
8820;DHT22;4446;50.876;4.736;2023-04-21T06:50:46;7.00;99.90
8820;DHT22;4446;50.876;4.736;2023-04-21T06:53:13;7.10;99.90
8820;DHT22;4446;50.876;4.736;2023-04-21T06:55:42;7.10;99.90
8820;DHT22;4446;50.876;4.736;2023-04-21T06:58:09;7.20;99.90
8820;DHT22;4446;50.876;4.736;2023-04-21T07:00:37;7.20;99.90
8820;DHT22;4446;50.876;4.736;2023-04-21T07:03:04;7.30;99.90
8820;DHT22;4446;50.876;4.736;2023-04-21T07:05:31;7.40;99.90
8820;DHT22;4446;50.876;4.736;2023-04-21T07:07:59;7.50;99.90
8820;DHT22;4446;50.876;4.736;2023-04-21T07:10:27;7.50;99.90
8820;DHT22;4446;50.876;4.736;2023-04-21T07:12:54;7.50;99.90
8820;DHT22;4446;50.876;4.736;2023-04-21T07:15:21;7.60;99.90
8820;DHT22;4446;50.876;4.736;2023-04-21T07:17:48;7.70;99.90
8820;DHT22;4446;50.876;4.736;2023-04-21T07:20:16;7.80;99.90
8820;DHT22;4446;50.876;4.736;2023-04-21T07:22:43;7.90;99.90
8820;DHT22;4446;50.876;4.736;2023-04-21T07:25:11;8.00;99.90
8820;DHT22;4446;50.876;4.736;2023-04-21T07:27:38;8.00;99.90
8820;DHT22;4446;50.876;4.736;2023-04-21T07:30:06;8.10;99.90
8820;DHT22;4446;50.876;4.736;2023-04-21T07:32:34;8.10;99.90
8820;DHT22;4446;50.876;4.736;2023-04-21T07:35:03;8.20;99.90
8820;DHT22;4446;50.876;4.736;2023-04-21T07:37:30;8.20;99.90
8820;DHT22;4446;50.876;4.736;2023-04-21T07:39:57;8.30;99.90
8820;DHT22;4446;50.876;4.736;2023-04-21T07:42:26;8.40;99.90
8820;DHT22;4446;50.876;4.736;2023-04-21T07:44:53;8.40;99.90
8820;DHT22;4446;50.876;4.736;2023-04-21T07:47:20;8.50;99.90
8820;DHT22;4446;50.876;4.736;2023-04-21T07:49:47;8.50;99.90
8820;DHT22;4446;50.876;4.736;2023-04-21T07:52:14;8.50;99.90
8820;DHT22;4446;50.876;4.736;2023-04-21T07:54:41;8.50;99.90
8820;DHT22;4446;50.876;4.736;2023-04-21T07:57:09;8.70;99.90
8820;DHT22;4446;50.876;4.736;2023-04-21T07:59:38;8.70;99.90
8820;DHT22;4446;50.876;4.736;2023-04-21T08:02:05;8.80;99.90
8820;DHT22;4446;50.876;4.736;2023-04-21T08:04:32;8.90;99.90
8820;DHT22;4446;50.876;4.736;2023-04-21T08:06:59;9.00;99.90
8820;DHT22;4446;50.876;4.736;2023-04-21T08:09:26;9.10;99.90
8820;DHT22;4446;50.876;4.736;2023-04-21T08:11:53;9.20;99.90
8820;DHT22;4446;50.876;4.736;2023-04-21T08:14:21;9.20;99.90
8820;DHT22;4446;50.876;4.736;2023-04-21T08:16:50;9.30;99.90
8820;DHT22;4446;50.876;4.736;2023-04-21T08:19:17;9.40;99.90
8820;DHT22;4446;50.876;4.736;2023-04-21T08:21:44;9.40;99.90
8820;DHT22;4446;50.876;4.736;2023-04-21T08:24:11;9.40;99.90
8820;DHT22;4446;50.876;4.736;2023-04-21T08:26:38;9.50;99.90
8820;DHT22;4446;50.876;4.736;2023-04-21T08:29:05;9.60;99.90
8820;DHT22;4446;50.876;4.736;2023-04-21T08:31:35;9.70;99.90
8820;DHT22;4446;50.876;4.736;2023-04-21T08:34:03;9.80;99.90
8820;DHT22;4446;50.876;4.736;2023-04-21T08:36:32;9.90;99.90
8820;DHT22;4446;50.876;4.736;2023-04-21T08:38:59;9.90;99.90
8820;DHT22;4446;50.876;4.736;2023-04-21T08:41:26;10.00;99.90
8820;DHT22;4446;50.876;4.736;2023-04-21T08:43:53;10.00;99.90
8820;DHT22;4446;50.876;4.736;2023-04-21T08:46:20;10.10;99.90
8820;DHT22;4446;50.876;4.736;2023-04-21T08:48:48;10.10;99.90
8820;DHT22;4446;50.876;4.736;2023-04-21T08:51:20;10.10;99.90
8820;DHT22;4446;50.876;4.736;2023-04-21T08:53:47;10.20;99.90
8820;DHT22;4446;50.876;4.736;2023-04-21T08:56:14;10.20;99.90
8820;DHT22;4446;50.876;4.736;2023-04-21T08:58:41;10.30;99.90
8820;DHT22;4446;50.876;4.736;2023-04-21T09:01:08;10.40;99.90
8820;DHT22;4446;50.876;4.736;2023-04-21T09:03:36;10.40;99.90
8820;DHT22;4446;50.876;4.736;2023-04-21T09:06:05;10.60;99.90
8820;DHT22;4446;50.876;4.736;2023-04-21T09:08:35;10.60;99.90
8820;DHT22;4446;50.876;4.736;2023-04-21T09:11:03;10.70;99.90
8820;DHT22;4446;50.876;4.736;2023-04-21T09:13:31;10.70;99.90
8820;DHT22;4446;50.876;4.736;2023-04-21T09:15:59;10.90;99.90
8820;DHT22;4446;50.876;4.736;2023-04-21T09:18:28;10.90;99.90
8820;DHT22;4446;50.876;4.736;2023-04-21T09:21:07;11.00;99.90
8820;DHT22;4446;50.876;4.736;2023-04-21T09:23:44;11.10;99.90
8820;DHT22;4446;50.876;4.736;2023-04-21T09:26:11;11.20;99.90
8820;DHT22;4446;50.876;4.736;2023-04-21T09:28:42;11.30;99.90
8820;DHT22;4446;50.876;4.736;2023-04-21T09:31:13;11.40;99.90
8820;DHT22;4446;50.876;4.736;2023-04-21T09:33:48;11.40;99.90
8820;DHT22;4446;50.876;4.736;2023-04-21T09:36:19;11.40;99.90
8820;DHT22;4446;50.876;4.736;2023-04-21T09:38:54;11.50;99.90
8820;DHT22;4446;50.876;4.736;2023-04-21T09:41:21;11.60;99.90
8820;DHT22;4446;50.876;4.736;2023-04-21T09:43:49;11.60;99.90
8820;DHT22;4446;50.876;4.736;2023-04-21T09:46:16;11.90;99.90
8820;DHT22;4446;50.876;4.736;2023-04-21T09:48:44;12.00;99.90
8820;DHT22;4446;50.876;4.736;2023-04-21T09:51:12;12.00;99.90
8820;DHT22;4446;50.876;4.736;2023-04-21T09:53:40;12.20;99.90
8820;DHT22;4446;50.876;4.736;2023-04-21T09:56:12;12.20;99.90
8820;DHT22;4446;50.876;4.736;2023-04-21T09:58:43;12.30;99.90
8820;DHT22;4446;50.876;4.736;2023-04-21T10:01:11;12.30;99.90
8820;DHT22;4446;50.876;4.736;2023-04-21T10:03:39;12.40;99.90
8820;DHT22;4446;50.876;4.736;2023-04-21T10:06:06;12.50;99.90
8820;DHT22;4446;50.876;4.736;2023-04-21T10:08:33;12.70;99.90
8820;DHT22;4446;50.876;4.736;2023-04-21T10:11:01;12.80;99.90
8820;DHT22;4446;50.876;4.736;2023-04-21T10:13:31;12.90;99.90
8820;DHT22;4446;50.876;4.736;2023-04-21T10:16:02;12.90;99.90
8820;DHT22;4446;50.876;4.736;2023-04-21T10:18:34;13.10;99.90
8820;DHT22;4446;50.876;4.736;2023-04-21T10:21:02;13.20;99.90
8820;DHT22;4446;50.876;4.736;2023-04-21T10:23:41;13.30;99.90
8820;DHT22;4446;50.876;4.736;2023-04-21T10:26:10;13.40;99.90
8820;DHT22;4446;50.876;4.736;2023-04-21T10:28:47;13.50;99.90
8820;DHT22;4446;50.876;4.736;2023-04-21T10:31:22;13.60;99.90
8820;DHT22;4446;50.876;4.736;2023-04-21T10:34:15;13.80;99.90
8820;DHT22;4446;50.876;4.736;2023-04-21T10:39:33;14.00;99.90
8820;DHT22;4446;50.876;4.736;2023-04-21T10:42:20;14.00;99.90
8820;DHT22;4446;50.876;4.736;2023-04-21T10:45:09;14.10;99.90
8820;DHT22;4446;50.876;4.736;2023-04-21T10:47:44;14.10;99.90
8820;DHT22;4446;50.876;4.736;2023-04-21T10:50:18;14.10;99.90
8820;DHT22;4446;50.876;4.736;2023-04-21T10:52:54;14.10;99.90
8820;DHT22;4446;50.876;4.736;2023-04-21T10:55:25;14.30;99.90
8820;DHT22;4446;50.876;4.736;2023-04-21T10:57:52;14.50;99.90
8820;DHT22;4446;50.876;4.736;2023-04-21T11:00:22;14.60;99.90
8820;DHT22;4446;50.876;4.736;2023-04-21T11:02:54;14.70;99.90
8820;DHT22;4446;50.876;4.736;2023-04-21T11:05:27;14.70;99.90
8820;DHT22;4446;50.876;4.736;2023-04-21T11:08:02;14.70;99.90
8820;DHT22;4446;50.876;4.736;2023-04-21T11:10:29;14.60;99.90
8820;DHT22;4446;50.876;4.736;2023-04-21T11:13:07;14.70;99.90
8820;DHT22;4446;50.876;4.736;2023-04-21T11:15:35;15.00;99.90
8820;DHT22;4446;50.876;4.736;2023-04-21T11:18:02;15.20;99.90
8820;DHT22;4446;50.876;4.736;2023-04-21T11:20:29;15.40;99.90
8820;DHT22;4446;50.876;4.736;2023-04-21T11:22:56;15.50;99.90
8820;DHT22;4446;50.876;4.736;2023-04-21T11:25:23;15.60;99.90
8820;DHT22;4446;50.876;4.736;2023-04-21T11:27:54;15.60;99.90
8820;DHT22;4446;50.876;4.736;2023-04-21T11:30:29;15.70;99.90
8820;DHT22;4446;50.876;4.736;2023-04-21T11:32:58;15.90;99.90
8820;DHT22;4446;50.876;4.736;2023-04-21T11:35:25;15.90;99.90
8820;DHT22;4446;50.876;4.736;2023-04-21T11:37:54;16.10;99.90
8820;DHT22;4446;50.876;4.736;2023-04-21T11:40:21;16.30;99.90
8820;DHT22;4446;50.876;4.736;2023-04-21T11:42:48;16.50;99.90
8820;DHT22;4446;50.876;4.736;2023-04-21T11:45:16;16.70;99.90
8820;DHT22;4446;50.876;4.736;2023-04-21T11:47:44;16.80;99.90
8820;DHT22;4446;50.876;4.736;2023-04-21T11:50:29;17.00;99.90
8820;DHT22;4446;50.876;4.736;2023-04-21T11:52:56;17.20;99.90
8820;DHT22;4446;50.876;4.736;2023-04-21T11:55:24;17.10;99.90
8820;DHT22;4446;50.876;4.736;2023-04-21T11:57:51;17.20;99.90
8820;DHT22;4446;50.876;4.736;2023-04-21T12:00:18;17.20;99.90
8820;DHT22;4446;50.876;4.736;2023-04-21T12:02:53;17.20;99.90
8820;DHT22;4446;50.876;4.736;2023-04-21T12:05:22;17.10;99.90
8820;DHT22;4446;50.876;4.736;2023-04-21T12:07:49;17.10;99.90
8820;DHT22;4446;50.876;4.736;2023-04-21T12:10:18;17.10;99.90
8820;DHT22;4446;50.876;4.736;2023-04-21T12:12:46;17.10;99.90
8820;DHT22;4446;50.876;4.736;2023-04-21T12:15:17;17.20;99.90
8820;DHT22;4446;50.876;4.736;2023-04-21T12:17:47;17.30;99.90
8820;DHT22;4446;50.876;4.736;2023-04-21T12:20:15;17.40;99.90
8820;DHT22;4446;50.876;4.736;2023-04-21T12:22:44;17.30;99.90
8820;DHT22;4446;50.876;4.736;2023-04-21T12:25:11;17.40;99.90
8820;DHT22;4446;50.876;4.736;2023-04-21T12:27:47;17.40;99.90
8820;DHT22;4446;50.876;4.736;2023-04-21T12:30:14;17.30;99.90
8820;DHT22;4446;50.876;4.736;2023-04-21T12:32:41;17.40;99.90
8820;DHT22;4446;50.876;4.736;2023-04-21T12:35:08;17.60;99.90
8820;DHT22;4446;50.876;4.736;2023-04-21T12:37:36;17.90;99.90
8820;DHT22;4446;50.876;4.736;2023-04-21T12:40:05;18.10;99.90
8820;DHT22;4446;50.876;4.736;2023-04-21T12:42:33;18.10;99.90
8820;DHT22;4446;50.876;4.736;2023-04-21T12:45:00;18.20;99.90
8820;DHT22;4446;50.876;4.736;2023-04-21T12:47:27;18.30;99.90
8820;DHT22;4446;50.876;4.736;2023-04-21T12:49:54;18.30;99.90
8820;DHT22;4446;50.876;4.736;2023-04-21T12:52:22;18.20;99.90
8820;DHT22;4446;50.876;4.736;2023-04-21T12:54:49;18.10;99.90
8820;DHT22;4446;50.876;4.736;2023-04-21T12:57:17;17.90;99.90
8820;DHT22;4446;50.876;4.736;2023-04-21T12:59:44;17.80;99.90
8820;DHT22;4446;50.876;4.736;2023-04-21T13:02:11;17.80;99.90
8820;DHT22;4446;50.876;4.736;2023-04-21T13:04:38;17.80;99.90
8820;DHT22;4446;50.876;4.736;2023-04-21T13:07:06;17.90;99.90
8820;DHT22;4446;50.876;4.736;2023-04-21T13:09:33;18.00;99.90
8820;DHT22;4446;50.876;4.736;2023-04-21T13:12:00;17.90;99.90
8820;DHT22;4446;50.876;4.736;2023-04-21T13:14:29;17.80;99.90
8820;DHT22;4446;50.876;4.736;2023-04-21T13:16:56;17.90;99.90
8820;DHT22;4446;50.876;4.736;2023-04-21T13:19:23;17.80;99.90
8820;DHT22;4446;50.876;4.736;2023-04-21T13:21:50;17.90;99.90
8820;DHT22;4446;50.876;4.736;2023-04-21T13:24:17;18.00;99.90
8820;DHT22;4446;50.876;4.736;2023-04-21T13:26:44;18.10;99.90
8820;DHT22;4446;50.876;4.736;2023-04-21T13:29:11;18.10;99.90
8820;DHT22;4446;50.876;4.736;2023-04-21T13:31:40;18.30;99.90
8820;DHT22;4446;50.876;4.736;2023-04-21T13:34:07;18.40;99.90
8820;DHT22;4446;50.876;4.736;2023-04-21T13:36:34;18.50;99.90
8820;DHT22;4446;50.876;4.736;2023-04-21T13:39:01;18.60;99.90
8820;DHT22;4446;50.876;4.736;2023-04-21T13:41:29;18.50;99.90
8820;DHT22;4446;50.876;4.736;2023-04-21T13:43:56;18.40;99.90
8820;DHT22;4446;50.876;4.736;2023-04-21T13:46:23;18.20;99.90
8820;DHT22;4446;50.876;4.736;2023-04-21T13:48:51;18.20;99.90
8820;DHT22;4446;50.876;4.736;2023-04-21T13:51:19;18.20;99.90
8820;DHT22;4446;50.876;4.736;2023-04-21T13:53:46;17.90;99.90
8820;DHT22;4446;50.876;4.736;2023-04-21T13:56:13;17.90;99.90
8820;DHT22;4446;50.876;4.736;2023-04-21T13:58:40;17.90;99.90
8820;DHT22;4446;50.876;4.736;2023-04-21T14:01:08;18.00;99.90
8820;DHT22;4446;50.876;4.736;2023-04-21T14:03:35;18.20;99.90
8820;DHT22;4446;50.876;4.736;2023-04-21T14:06:04;18.40;99.90
8820;DHT22;4446;50.876;4.736;2023-04-21T14:08:31;18.40;99.90
8820;DHT22;4446;50.876;4.736;2023-04-21T14:11:00;18.30;99.90
8820;DHT22;4446;50.876;4.736;2023-04-21T14:13:27;18.30;99.90
8820;DHT22;4446;50.876;4.736;2023-04-21T14:15:55;18.30;99.90
8820;DHT22;4446;50.876;4.736;2023-04-21T14:18:23;18.20;99.90
8820;DHT22;4446;50.876;4.736;2023-04-21T14:20:50;18.20;99.90
8820;DHT22;4446;50.876;4.736;2023-04-21T14:23:18;18.30;99.90
8820;DHT22;4446;50.876;4.736;2023-04-21T14:25:45;18.40;99.90
8820;DHT22;4446;50.876;4.736;2023-04-21T14:28:12;18.70;99.90
8820;DHT22;4446;50.876;4.736;2023-04-21T14:30:39;18.80;99.90
8820;DHT22;4446;50.876;4.736;2023-04-21T14:33:07;18.90;99.90
8820;DHT22;4446;50.876;4.736;2023-04-21T14:35:35;19.40;99.90
8820;DHT22;4446;50.876;4.736;2023-04-21T14:38:02;20.20;99.90
8820;DHT22;4446;50.876;4.736;2023-04-21T14:40:30;20.50;99.90
8820;DHT22;4446;50.876;4.736;2023-04-21T14:42:57;20.20;99.90
8820;DHT22;4446;50.876;4.736;2023-04-21T14:45:24;19.60;99.90
8820;DHT22;4446;50.876;4.736;2023-04-21T14:47:51;19.90;99.90
8820;DHT22;4446;50.876;4.736;2023-04-21T14:50:18;20.40;99.90
8820;DHT22;4446;50.876;4.736;2023-04-21T14:52:45;20.60;99.90
8820;DHT22;4446;50.876;4.736;2023-04-21T14:55:14;20.70;99.90
8820;DHT22;4446;50.876;4.736;2023-04-21T14:57:42;20.70;99.90
8820;DHT22;4446;50.876;4.736;2023-04-21T15:00:10;20.70;99.90
8820;DHT22;4446;50.876;4.736;2023-04-21T15:02:37;20.70;99.90
8820;DHT22;4446;50.876;4.736;2023-04-21T15:05:06;20.90;99.90
8820;DHT22;4446;50.876;4.736;2023-04-21T15:07:33;20.90;99.90
8820;DHT22;4446;50.876;4.736;2023-04-21T15:10:00;21.20;99.90
8820;DHT22;4446;50.876;4.736;2023-04-21T15:12:27;21.50;99.90
8820;DHT22;4446;50.876;4.736;2023-04-21T15:14:55;22.00;99.90
8820;DHT22;4446;50.876;4.736;2023-04-21T15:17:23;22.10;99.90
8820;DHT22;4446;50.876;4.736;2023-04-21T15:19:50;22.30;99.40
8820;DHT22;4446;50.876;4.736;2023-04-21T15:22:17;22.00;99.50
8820;DHT22;4446;50.876;4.736;2023-04-21T15:24:44;21.60;99.00
8820;DHT22;4446;50.876;4.736;2023-04-21T15:27:12;21.00;99.90
8820;DHT22;4446;50.876;4.736;2023-04-21T15:29:39;21.10;99.80
8820;DHT22;4446;50.876;4.736;2023-04-21T15:32:08;21.60;99.10
8820;DHT22;4446;50.876;4.736;2023-04-21T15:34:35;21.40;98.80
8820;DHT22;4446;50.876;4.736;2023-04-21T15:37:02;21.20;99.10
8820;DHT22;4446;50.876;4.736;2023-04-21T15:39:29;20.70;99.90
8820;DHT22;4446;50.876;4.736;2023-04-21T15:41:56;20.20;99.90
8820;DHT22;4446;50.876;4.736;2023-04-21T15:44:23;20.00;99.90
8820;DHT22;4446;50.876;4.736;2023-04-21T15:46:54;20.20;99.90
8820;DHT22;4446;50.876;4.736;2023-04-21T15:49:26;20.80;99.90
8820;DHT22;4446;50.876;4.736;2023-04-21T15:51:55;21.40;99.90
8820;DHT22;4446;50.876;4.736;2023-04-21T15:54:22;21.40;99.90
8820;DHT22;4446;50.876;4.736;2023-04-21T15:56:49;19.60;99.90
8820;DHT22;4446;50.876;4.736;2023-04-21T15:59:16;17.70;99.90
8820;DHT22;4446;50.876;4.736;2023-04-21T16:01:44;16.50;99.90
8820;DHT22;4446;50.876;4.736;2023-04-21T16:04:11;15.80;99.90
8820;DHT22;4446;50.876;4.736;2023-04-21T16:06:39;15.40;99.90
8820;DHT22;4446;50.876;4.736;2023-04-21T16:09:06;15.20;99.90
8820;DHT22;4446;50.876;4.736;2023-04-21T16:11:35;15.80;99.90
8820;DHT22;4446;50.876;4.736;2023-04-21T16:14:02;16.70;99.90
8820;DHT22;4446;50.876;4.736;2023-04-21T16:16:29;17.50;99.90